Time;durP1;ratioP1;P1;durP2;ratioP2;P2;SDS_P1;SDS_P2;PMS_P1;PMS_P2;Temp;Humidity;BMP_temperature;BMP_pressure;BME280_temperature;BME280_humidity;BME280_pressure;Samples;Min_cycle;Max_cycle;Signal;HPM_P1;HPM_P2
2022/04/23 00:02:10;;;;;;;16.80;13.50;;;;;;;12.44;58.44;101083.97;4812407;29;120043;-83
2022/04/23 00:04:36;;;;;;;18.02;14.07;;;;;;;12.42;58.34;101080.91;4796843;29;119847;-82
2022/04/23 00:07:02;;;;;;;19.40;13.63;;;;;;;12.36;58.49;101074.47;4784885;29;119571;-82
2022/04/23 00:09:28;;;;;;;18.45;13.68;;;;;;;12.39;58.39;101079.06;4812524;29;122863;-82
2022/04/23 00:11:55;;;;;;;19.45;14.18;;;;;;;12.41;58.82;101091.16;4813654;29;119688;-82
2022/04/23 00:14:25;;;;;;;19.17;14.02;;;;;;;12.40;58.50;101081.34;4773943;29;121671;-82
2022/04/23 00:16:53;;;;;;;17.83;14.23;;;;;;;12.41;58.53;101084.88;4797722;29;123672;-83
2022/04/23 00:19:20;;;;;;;18.70;14.65;;;;;;;12.35;58.02;101079.22;4812333;29;119672;-82
2022/04/23 00:21:45;;;;;;;17.60;13.35;;;;;;;12.26;58.55;101065.41;4812715;29;121071;-82
2022/04/23 00:24:11;;;;;;;18.65;14.45;;;;;;;12.24;58.35;101073.34;4795994;29;119787;-82
2022/04/23 00:26:36;;;;;;;22.20;14.68;;;;;;;12.21;58.62;101077.75;4790515;29;120253;-82
2022/04/23 00:29:03;;;;;;;18.73;14.38;;;;;;;12.20;58.79;101073.47;4812879;29;120330;-81
2022/04/23 00:31:28;;;;;;;19.98;14.73;;;;;;;12.12;58.66;101077.72;4781651;29;121003;-81
2022/04/23 00:33:54;;;;;;;19.25;14.32;;;;;;;12.18;58.87;101078.66;4794498;29;122599;-81
2022/04/23 00:36:23;;;;;;;23.52;15.35;;;;;;;12.17;58.55;101076.38;4807539;29;120586;-81
2022/04/23 02:22:45;;;;;;;20.65;15.75;;;;;;;11.69;60.32;101062.03;4840888;29;120213;-92
2022/04/23 02:34:21;;;;;;;26.45;17.60;;;;;;;11.30;61.15;101008.50;4817190;29;118469;-92
2022/04/23 04:03:00;;;;;;;24.73;14.48;;;;;;;11.02;61.62;100989.06;4843570;29;118553;-92
2022/04/23 04:05:26;;;;;;;20.77;15.15;;;;;;;11.06;61.70;100986.97;4827126;29;120475;-94
2022/04/23 04:07:58;;;;;;;22.35;14.77;;;;;;;11.06;61.78;100978.72;4825747;29;122196;-91
2022/04/23 04:19:14;;;;;;;21.38;13.82;;;;;;;11.51;61.30;101043.44;4842967;29;118498;-93
2022/04/23 04:22:45;;;;;;;19.17;13.82;;;;;;;11.66;60.74;101055.44;4820283;29;118612;-94
2022/04/23 04:25:29;;;;;;;20.75;13.60;;;;;;;11.17;60.58;100991.31;4842875;29;120739;-91
2022/04/23 04:27:55;;;;;;;17.00;13.20;;;;;;;11.39;61.07;101022.31;4809709;29;121877;-91
2022/04/23 04:30:27;;;;;;;22.85;13.85;;;;;;;11.29;60.96;101001.47;4809362;29;118609;-92
2022/04/23 04:32:59;;;;;;;18.90;13.48;;;;;;;11.78;60.94;101067.59;4825857;28;121822;-91
2022/04/23 04:35:25;;;;;;;17.55;13.20;;;;;;;11.29;60.80;100985.75;4811574;29;118554;-91
2022/04/23 04:37:51;;;;;;;18.35;14.02;;;;;;;11.63;60.47;101042.63;4825966;29;121613;-91
2022/04/23 04:40:46;;;;;;;21.40;13.93;;;;;;;11.83;60.79;101072.53;4825731;29;120274;-92
2022/04/23 04:44:06;;;;;;;19.42;13.32;;;;;;;11.86;60.26;101068.88;4826128;29;118552;-95
2022/04/23 04:54:26;;;;;;;18.17;12.93;;;;;;;11.60;60.69;101037.25;4845867;28;118481;-91
2022/04/23 04:57:37;;;;;;;18.98;13.60;;;;;;;11.37;60.76;101008.25;4841375;29;121796;-92
2022/04/23 05:00:37;;;;;;;17.30;12.77;;;;;;;11.81;60.68;101074.19;4810276;28;118510;-92
2022/04/23 05:04:26;;;;;;;20.23;14.05;;;;;;;11.32;60.70;101006.81;4841464;29;120485;-93
2022/04/23 05:07:38;;;;;;;21.10;13.57;;;;;;;11.37;61.28;100997.28;4841161;29;120461;-91
2022/04/23 05:10:07;;;;;;;18.52;13.10;;;;;;;11.78;60.97;101042.06;4810767;28;118485;-91
2022/04/23 05:12:45;;;;;;;20.08;13.80;;;;;;;11.84;60.36;101059.56;4821427;29;119692;-91
2022/04/23 05:16:04;;;;;;;18.85;13.20;;;;;;;11.53;60.76;101021.78;4816437;29;119246;-91
2022/04/23 05:18:36;;;;;;;18.70;12.93;;;;;;;11.72;60.61;101050.13;4806593;29;119228;-92
2022/04/23 05:21:39;;;;;;;20.23;13.23;;;;;;;11.91;61.17;101086.78;4842886;29;118425;-92
2022/04/23 05:24:24;;;;;;;20.15;13.48;;;;;;;11.96;61.09;101083.44;4837521;28;118562;-91
2022/04/23 05:27:08;;;;;;;17.95;13.23;;;;;;;12.03;60.93;101085.91;4840851;28;120269;-92
2022/04/23 05:30:48;;;;;;;21.27;13.75;;;;;;;11.58;60.72;101009.44;4832909;29;120510;-93
2022/04/23 05:33:18;;;;;;;21.40;13.68;;;;;;;12.12;60.74;101094.22;4825866;28;118381;-93
2022/04/23 05:36:06;;;;;;;19.83;13.32;;;;;;;11.65;61.01;101012.69;4825381;29;120962;-93
2022/04/23 05:39:02;;;;;;;17.35;14.02;;;;;;;11.61;60.65;101003.84;4823925;29;122413;-93
2022/04/23 05:41:41;;;;;;;;;;;;;;;;;;;;;
2022/04/23 05:45:07;;;;;;;23.50;14.02;;;;;;;11.70;60.87;101019.59;4785551;29;118549;-91
2022/04/23 05:48:15;;;;;;;19.20;13.52;;;;;;;12.29;60.56;101089.25;4773390;29;119308;-92
2022/04/23 05:51:23;;;;;;;20.80;13.65;;;;;;;11.79;60.38;101029.88;4775769;29;118702;-93
2022/04/23 05:55:00;;;;;;;20.58;14.32;;;;;;;12.31;60.90;101088.81;4791441;29;118976;-92
2022/04/23 05:57:51;;;;;;;;;;;;;;;12.39;60.64;101090.06;4759593;29;119340;-92
2022/04/23 06:00:30;;;;;;;;;;;;;;;;;;;;;
2022/04/23 06:03:50;;;;;;;20.83;13.70;;;;;;;12.50;59.86;101096.66;4652183;30;118724;-91
2022/04/23 06:06:16;;;;;;;21.33;13.77;;;;;;;12.26;60.62;101052.41;4643906;30;118482;-92
2022/04/23 06:08:45;;;;;;;20.80;13.68;;;;;;;12.64;60.16;101084.34;4616096;30;122059;-92
2022/04/23 06:12:25;;;;;;;20.70;13.70;;;;;;;12.28;60.00;101025.22;4643306;30;118597;-91
2022/04/23 06:23:18;;;;;;;;;;;;;;;;;;;;;
2022/04/23 06:39:04;;;;;;;16.60;11.50;;;;;;;12.53;58.61;101018.72;4748453;29;119954;-91
2022/04/23 06:49:26;;;;;;;;;;;;;;;;;;;;;
2022/04/23 06:52:25;;;;;;;15.80;11.85;;;;;;;13.20;58.82;101097.00;4826791;28;118690;-92
2022/04/23 06:54:52;;;;;;;16.85;11.43;;;;;;;12.80;58.24;101042.03;4824819;29;121786;-92
2022/04/23 07:02:41;;;;;;;15.95;10.68;;;;;;;13.36;58.57;101116.00;4819465;29;118941;-92
2022/04/23 07:05:08;;;;;;;17.52;10.82;;;;;;;13.42;58.44;101125.19;4792963;29;121115;-92
2022/04/23 07:07:38;;;;;;;17.20;10.60;;;;;;;12.97;58.38;101057.03;4824539;29;121895;-92
2022/04/23 07:10:05;;;;;;;14.85;10.30;;;;;;;13.00;58.92;101047.06;4824685;29;118564;-92
2022/04/23 07:13:17;;;;;;;14.63;10.85;;;;;;;13.06;58.25;101042.50;4844703;28;122389;-93
2022/04/23 07:16:06;;;;;;;17.80;10.85;;;;;;;13.15;57.87;101065.31;4827541;28;118970;-93
2022/04/23 07:18:55;;;;;;;14.55;10.68;;;;;;;13.07;58.11;101050.31;4809609;28;121012;-93
2022/04/23 07:22:27;;;;;;;13.75;10.48;;;;;;;13.59;58.31;101116.63;4810334;29;120336;-93
2022/04/23 08:11:07;;;;;;;16.65;9.15;;;;;;;15.38;53.15;101115.25;998794;23;121727;-92
2022/04/23 08:13:37;;;;;;;13.00;9.75;;;;;;;14.94;53.63;101072.47;4822207;29;119662;-93
2022/04/23 08:16:45;;;;;;;12.23;9.40;;;;;;;15.05;54.10;101105.06;4808437;29;121605;-91
2022/04/23 08:19:14;;;;;;;14.35;9.70;;;;;;;14.72;53.91;101085.81;4798594;29;118923;-93
2022/04/23 08:21:43;;;;;;;14.88;9.57;;;;;;;14.64;54.94;101065.28;4808653;29;120403;-92
2022/04/23 08:24:20;;;;;;;13.10;9.35;;;;;;;15.06;55.70;101112.13;4808221;29;119384;-92
2022/04/23 08:26:52;;;;;;;13.87;8.80;;;;;;;14.80;55.85;101050.31;4802617;29;118984;-93
2022/04/23 08:32:07;;;;;;;11.55;8.68;;;;;;;15.07;53.65;101054.88;4808546;29;118673;-93
2022/04/23 08:34:33;;;;;;;14.27;8.95;;;;;;;15.31;53.30;101080.47;4803553;29;120774;-94
2022/04/23 08:36:59;;;;;;;18.63;9.52;;;;;;;15.57;52.00;101138.75;4801791;29;122701;-93
2022/04/23 08:39:25;;;;;;;15.77;9.70;;;;;;;15.37;51.82;101125.56;4804665;29;119221;-92
2022/04/23 08:42:22;;;;;;;12.95;9.25;;;;;;;15.17;52.28;101117.13;4785801;29;122436;-93
2022/04/23 08:44:51;;;;;;;13.25;9.57;;;;;;;15.11;53.46;101127.28;4808151;29;121211;-93
2022/04/23 08:48:09;;;;;;;13.48;9.45;;;;;;;14.73;52.79;101063.22;4804042;29;119117;-93
2022/04/23 08:50:37;;;;;;;11.35;8.88;;;;;;;14.89;52.97;101102.72;4809997;29;121077;-91
2022/04/23 08:53:14;;;;;;;17.48;9.73;;;;;;;14.74;52.65;101086.84;4793222;29;123108;-94
2022/04/23 08:56:28;;;;;;;13.85;9.85;;;;;;;14.91;53.43;101122.38;4804796;29;120533;-92
2022/04/23 08:58:56;;;;;;;12.07;9.73;;;;;;;14.45;53.84;101063.88;4816690;29;120704;-93
2022/04/23 09:02:38;;;;;;;14.18;9.60;;;;;;;14.87;54.04;101111.47;4836368;28;118648;-93
2022/04/23 09:05:13;;;;;;;14.35;10.20;;;;;;;14.40;53.64;101035.63;4827955;29;119646;-93
2022/04/23 09:07:39;;;;;;;12.75;10.02;;;;;;;14.53;54.09;101071.31;4806538;29;121447;-92
2022/04/23 09:13:33;;;;;;;11.98;9.70;;;;;;;14.87;55.24;101063.75;4831161;23;120883;-94
2022/04/23 10:21:08;;;;;;;14.55;10.75;;;;;;;15.90;52.03;101066.72;824855;23;119013;-89
2022/04/23 10:24:13;;;;;;;14.35;10.90;;;;;;;15.94;50.35;101064.53;4814540;29;120616;-92
2022/04/23 10:26:56;;;;;;;14.75;11.63;;;;;;;15.45;50.83;100990.50;4816395;29;121169;-92
2022/04/23 10:29:31;;;;;;;16.70;11.38;;;;;;;15.84;50.49;101043.72;4806016;29;122086;-92
2022/04/23 10:32:16;;;;;;;14.63;11.82;;;;;;;15.96;51.10;101059.28;4811993;29;119977;-93
2022/04/23 10:34:47;;;;;;;14.38;11.63;;;;;;;15.86;50.57;101047.56;4810253;29;121442;-93
2022/04/23 10:37:31;;;;;;;15.63;11.93;;;;;;;15.49;50.01;101002.91;4826618;29;120183;-92
2022/04/23 10:40:17;;;;;;;14.80;11.85;;;;;;;15.41;49.92;100984.41;4825350;29;121078;-92
2022/04/23 10:43:19;;;;;;;15.45;12.48;;;;;;;15.81;49.58;101042.69;4813502;29;121752;-92
2022/04/23 10:46:03;;;;;;;13.52;12.13;;;;;;;15.85;50.37;101048.81;4831980;29;118502;-92
2022/04/23 10:49:35;;;;;;;15.85;11.63;;;;;;;15.54;49.91;100991.19;4825189;29;121141;-93
2022/04/23 10:52:14;;;;;;;14.48;11.23;;;;;;;15.76;50.11;101014.94;4824822;28;121521;-94
2022/04/23 10:55:17;;;;;;;13.73;11.60;;;;;;;15.46;50.67;100954.09;4835434;28;118681;-93
2022/04/23 10:58:09;;;;;;;14.10;12.00;;;;;;;15.63;50.25;100959.94;4794858;28;120922;-91
2022/04/23 11:02:02;;;;;;;14.80;11.65;;;;;;;15.74;49.69;100976.69;4823644;28;118778;-93
2022/04/23 12:25:08;;;;;;;13.10;11.02;;;;;;;16.67;48.93;100955.63;699153;23;120991;-91
2022/04/23 12:28:01;;;;;;;15.48;11.50;;;;;;;16.71;48.25;100967.25;4824844;28;120409;-94
2022/04/23 12:43:32;;;;;;;11.02;8.57;;;;;;;16.43;46.93;100886.59;4818585;29;118575;-91
2022/04/23 12:46:09;;;;;;;11.20;9.13;;;;;;;16.81;46.73;100935.41;4795281;29;121460;-92
2022/04/23 12:49:09;;;;;;;12.75;8.63;;;;;;;16.44;46.35;100882.56;4782234;29;119161;-93
2022/04/23 12:51:56;;;;;;;12.80;9.30;;;;;;;16.45;45.44;100878.56;4810791;29;119257;-93
2022/04/23 12:54:22;;;;;;;11.65;8.48;;;;;;;16.63;46.56;100912.75;4791659;29;123869;-92
2022/04/23 12:56:51;;;;;;;10.10;8.32;;;;;;;16.99;46.81;100941.84;4793483;29;118788;-91
2022/04/23 12:59:23;;;;;;;9.88;8.48;;;;;;;16.88;44.29;100934.97;4792515;29;121303;-91
2022/04/23 13:02:05;;;;;;;10.35;8.07;;;;;;;16.54;43.71;100870.09;4805098;29;122204;-91
2022/04/23 13:04:38;;;;;;;9.57;7.55;;;;;;;16.95;43.51;100935.78;4805742;29;118623;-91
2022/04/23 13:10:19;;;;;;;9.02;7.50;;;;;;;16.58;43.13;100867.88;4804980;29;121300;-92
2022/04/23 13:13:36;;;;;;;9.57;7.03;;;;;;;16.57;43.40;100863.59;4808913;29;118654;-91
2022/04/23 13:16:36;;;;;;;10.43;7.53;;;;;;;17.03;43.48;100926.53;4804551;29;119055;-92
2022/04/23 13:19:17;;;;;;;11.45;7.40;;;;;;;16.62;43.47;100853.81;4812894;29;119082;-95
2022/04/23 14:10:47;;;;;;;8.18;4.75;;;;;;;17.01;39.13;100826.50;4826118;28;120080;-94
2022/04/23 14:13:19;;;;;;;8.10;4.93;;;;;;;17.17;40.35;100841.75;4846620;28;120509;-93
2022/04/23 14:24:44;;;;;;;6.55;3.80;;;;;;;17.10;37.59;100815.25;829699;23;120873;-91
2022/04/23 14:27:16;;;;;;;6.82;4.60;;;;;;;16.92;38.01;100782.34;4804166;29;122362;-93
2022/04/23 14:29:43;;;;;;;7.30;4.40;;;;;;;17.41;38.24;100852.50;4821742;28;122178;-92
2022/04/23 14:32:13;;;;;;;5.03;3.78;;;;;;;17.16;37.07;100804.19;4823237;28;119080;-92
2022/04/23 16:47:44;;;;;;;9.68;6.07;;;;;;;16.72;44.03;100729.81;4826959;29;120278;-93
2022/04/23 16:50:10;;;;;;;7.40;5.72;;;;;;;16.70;43.32;100721.22;4801123;28;120719;-91
2022/04/23 16:57:04;;;;;;;7.80;5.30;;;;;;;16.90;43.90;100782.09;4829955;28;118416;-94
2022/04/23 16:59:30;;;;;;;7.85;5.30;;;;;;;16.54;44.32;100730.88;4806572;29;119478;-93
2022/04/23 17:05:56;;;;;;;9.32;5.80;;;;;;;16.65;45.44;100774.53;4824555;29;118605;-93
2022/04/23 17:08:30;;;;;;;7.43;5.22;;;;;;;16.46;45.45;100730.56;4823419;29;119926;-94
2022/04/23 17:10:57;;;;;;;6.72;4.90;;;;;;;16.42;46.02;100732.81;4822208;28;120547;-93
2022/04/23 17:13:41;;;;;;;7.20;5.35;;;;;;;16.53;46.17;100755.03;4813212;29;118531;-95
2022/04/23 17:16:13;;;;;;;10.63;5.47;;;;;;;16.84;46.63;100792.38;4818339;29;121794;-94
2022/04/23 17:18:57;;;;;;;;;;;;;;;;;;;;;
2022/04/23 17:21:31;;;;;;;7.97;5.70;;;;;;;16.61;47.33;100774.75;4762498;28;121193;-93
2022/04/23 17:27:56;;;;;;;7.57;5.07;;;;;;;16.66;47.16;100790.69;4806441;29;122116;-81
2022/04/23 17:30:25;;;;;;;9.55;5.25;;;;;;;16.69;47.69;100791.72;4808631;29;122481;-80
2022/04/23 17:32:51;;;;;;;8.30;5.63;;;;;;;16.70;47.64;100790.47;4808521;29;121747;-80
2022/04/23 17:35:18;;;;;;;8.65;5.32;;;;;;;16.68;47.66;100792.97;4795224;29;120713;-80
2022/04/23 17:37:43;;;;;;;6.47;4.72;;;;;;;16.66;47.62;100795.44;4807806;29;121189;-80
2022/04/23 17:40:09;;;;;;;7.57;5.00;;;;;;;16.64;48.11;100797.94;4808690;29;119770;-81
2022/04/23 17:42:37;;;;;;;7.78;4.80;;;;;;;16.63;48.40;100799.19;4820678;28;120530;-80
2022/04/23 17:45:03;;;;;;;8.60;4.80;;;;;;;16.60;48.48;100800.19;4801459;29;120613;-80
2022/04/23 17:47:29;;;;;;;7.20;5.28;;;;;;;16.54;48.81;100784.25;4773749;29;120508;-80
2022/04/23 17:49:55;;;;;;;7.40;5.00;;;;;;;16.50;48.50;100786.47;4776817;29;122439;-81
2022/04/23 17:52:21;;;;;;;8.75;4.55;;;;;;;16.51;48.78;100799.06;4790543;29;122894;-81
2022/04/23 17:54:47;;;;;;;7.85;4.90;;;;;;;16.48;48.56;100791.75;4789950;29;122072;-80
2022/04/23 17:57:13;;;;;;;8.40;4.72;;;;;;;16.42;48.50;100792.94;4796613;29;121676;-81
2022/04/23 18:07:23;;;;;;;7.45;5.00;;;;;;;16.38;48.63;100789.63;4800682;29;121292;-80
2022/04/23 18:07:57;;;;;;;10.00;4.85;;;;;;;16.19;49.36;100772.56;4791198;29;119747;-80
2022/04/23 18:13:11;;;;;;;;;;;;;;;16.21;49.13;100795.00;4776643;29;121897;-81
2022/04/23 18:15:37;;;;;;;7.60;4.80;;;;;;;16.12;49.51;100784.84;4830898;23;120239;-84
2022/04/23 18:18:03;;;;;;;6.72;5.03;;;;;;;16.08;49.36;100783.50;4791434;29;120179;-85
2022/04/23 18:20:31;;;;;;;7.18;4.82;;;;;;;16.08;49.67;100786.28;4780502;29;120062;-83
2022/04/23 18:22:58;;;;;;;8.35;5.32;;;;;;;16.07;49.69;100795.81;4791590;29;120445;-84
2022/04/23 18:25:23;;;;;;;10.35;5.22;;;;;;;16.00;50.10;100793.47;4785002;29;122694;-83
2022/04/23 18:27:49;;;;;;;8.10;4.55;;;;;;;15.92;50.21;100793.16;4777079;29;120165;-84
2022/04/23 18:30:17;;;;;;;8.32;4.78;;;;;;;15.91;50.20;100791.63;4777421;29;122930;-84
2022/04/23 18:32:43;;;;;;;6.70;4.63;;;;;;;15.81;50.28;100801.28;4790048;29;124917;-84
2022/04/23 18:35:08;;;;;;;9.18;5.13;;;;;;;15.80;50.63;100794.25;4791499;29;123248;-84
2022/04/23 18:37:34;;;;;;;8.10;5.25;;;;;;;15.69;50.59;100794.09;4794305;29;119953;-85
2022/04/23 18:39:59;;;;;;;9.55;5.65;;;;;;;15.73;50.98;100809.25;4791337;29;122697;-84
2022/04/23 18:42:26;;;;;;;7.25;5.20;;;;;;;15.66;50.96;100801.38;4787370;29;120102;-84
2022/04/23 18:44:51;;;;;;;8.27;5.45;;;;;;;15.62;51.03;100795.28;4808370;28;120120;-83
2022/04/23 18:47:19;;;;;;;6.25;4.70;;;;;;;15.66;50.92;100801.38;4791385;29;120303;-82
2022/04/23 18:49:44;;;;;;;8.95;5.22;;;;;;;15.60;51.02;100801.28;4788652;29;121952;-85
2022/04/23 18:52:10;;;;;;;7.50;5.18;;;;;;;15.57;51.21;100801.44;4791566;29;119954;-84
2022/04/23 18:54:36;;;;;;;7.70;5.03;;;;;;;15.45;51.47;100791.50;4791250;29;120688;-83
2022/04/23 18:57:01;;;;;;;7.20;5.10;;;;;;;15.46;51.25;100804.06;4786141;29;120303;-83
2022/04/23 18:59:27;;;;;;;8.85;5.50;;;;;;;15.39;51.54;100790.66;4791212;29;120324;-84
2022/04/23 19:01:53;;;;;;;8.75;5.40;;;;;;;15.33;50.99;100799.59;4760288;29;121179;-83
2022/04/23 19:04:18;;;;;;;6.47;5.13;;;;;;;15.29;50.97;100799.03;4793994;29;121929;-86
2022/04/23 19:06:44;;;;;;;9.43;5.47;;;;;;;15.26;51.27;100807.53;4789309;29;119957;-86
2022/04/23 19:09:10;;;;;;;11.65;5.25;;;;;;;15.22;51.41;100806.97;4759987;29;123775;-86
2022/04/23 19:11:37;;;;;;;9.57;5.20;;;;;;;15.15;51.95;100805.38;4804415;29;119853;-83
2022/04/23 19:14:06;;;;;;;7.57;5.18;;;;;;;15.22;51.58;100824.31;4759423;29;119834;-86
2022/04/23 19:16:36;;;;;;;6.88;5.68;;;;;;;15.20;51.78;100828.81;4773200;29;121965;-88
2022/04/23 19:19:06;;;;;;;8.40;5.47;;;;;;;15.07;51.89;100806.22;4802555;29;120237;-83
2022/04/23 19:29:44;;;;;;;;;;;;;;;14.95;52.02;100824.63;4791039;29;119957;-84
2022/04/23 19:32:10;;;;;;;12.30;6.30;;;;;;;14.95;52.24;100821.88;4773655;29;123654;-86
2022/04/23 19:34:36;;;;;;;8.85;6.50;;;;;;;14.84;52.85;100811.38;4774890;29;119958;-83
2022/04/23 19:37:02;;;;;;;10.88;6.35;;;;;;;14.79;52.54;100806.53;4789813;29;119962;-85
2022/04/23 19:39:27;;;;;;;7.75;6.10;;;;;;;14.77;53.00;100811.00;4785617;29;122683;-83
2022/04/23 19:41:53;;;;;;;9.35;6.25;;;;;;;14.84;53.27;100824.44;4805530;29;120363;-86
2022/04/23 19:44:18;;;;;;;8.85;6.38;;;;;;;14.80;52.94;100821.88;4793279;29;120179;-84
2022/04/23 19:46:44;;;;;;;9.90;6.35;;;;;;;14.66;52.66;100804.03;4766512;29;122809;-84
2022/04/23 19:49:10;;;;;;;12.63;7.10;;;;;;;14.68;53.34;100811.88;4776811;29;120237;-86
2022/04/23 19:51:36;;;;;;;8.85;7.30;;;;;;;14.64;53.05;100809.28;4807916;28;120150;-85
2022/04/23 19:54:03;;;;;;;10.25;7.00;;;;;;;14.58;53.14;100804.91;4792309;29;120091;-85
2022/04/23 19:56:28;;;;;;;9.55;7.05;;;;;;;14.48;53.01;100804.25;4776467;29;121745;-86
2022/04/23 19:58:54;;;;;;;12.10;7.00;;;;;;;14.52;53.07;100813.09;4789836;29;123072;-86
2022/04/23 20:01:22;;;;;;;10.75;6.68;;;;;;;14.40;53.30;100795.53;4777128;29;120893;-85
2022/04/23 20:03:48;;;;;;;10.65;6.88;;;;;;;14.34;53.44;100802.94;4772383;29;121854;-85
2022/04/23 20:06:14;;;;;;;10.68;6.78;;;;;;;14.28;53.50;100790.28;4791097;29;124697;-86
2022/04/23 20:08:39;;;;;;;11.00;6.57;;;;;;;14.26;53.87;100788.00;4792958;29;121370;-86
2022/04/23 20:11:06;;;;;;;9.30;7.00;;;;;;;14.31;53.77;100800.38;4776237;29;122786;-86
2022/04/23 20:13:32;;;;;;;8.82;6.80;;;;;;;14.25;54.16;100810.53;4793116;29;120635;-86
2022/04/23 20:16:00;;;;;;;9.57;6.95;;;;;;;14.21;53.81;100801.69;4806276;29;120914;-85
2022/04/23 20:18:25;;;;;;;10.05;7.13;;;;;;;14.21;54.03;100801.69;4792202;29;119881;-85
2022/04/23 20:20:51;;;;;;;9.70;7.15;;;;;;;13.92;54.09;100778.28;4791842;29;120100;-86
2022/04/23 20:23:17;;;;;;;12.65;7.22;;;;;;;14.14;54.26;100814.59;4792594;29;121449;-86
2022/04/23 20:25:42;;;;;;;10.90;7.45;;;;;;;14.09;54.40;100820.78;4791262;29;122772;-86
2022/04/23 20:28:08;;;;;;;16.13;7.38;;;;;;;13.99;54.76;100808.28;4792751;29;119992;-84
2022/04/23 20:30:34;;;;;;;11.27;7.40;;;;;;;14.00;54.96;100826.38;4797012;29;122138;-83
2022/04/23 20:33:01;;;;;;;8.63;6.63;;;;;;;13.88;55.29;100810.81;4811029;29;120211;-84
2022/04/23 20:38:16;;;;;;;11.10;7.03;;;;;;;13.86;55.11;100810.50;4794015;29;124532;-87
2022/04/23 20:40:44;;;;;;;10.85;7.38;;;;;;;13.89;55.37;100817.84;4780841;29;119980;-86
2022/04/23 20:43:10;;;;;;;11.45;6.80;;;;;;;13.79;55.19;100806.13;4811388;29;122989;-86
2022/04/23 20:45:37;;;;;;;11.13;7.03;;;;;;;13.78;55.07;100809.34;4792806;29;122759;-86
2022/04/23 20:48:05;;;;;;;11.40;6.78;;;;;;;13.74;55.36;100797.75;4811613;29;120681;-86
2022/04/23 20:50:31;;;;;;;8.73;6.75;;;;;;;13.76;55.02;100809.06;4795760;29;121765;-86
2022/04/23 20:53:16;;;;;;;12.10;6.57;;;;;;;13.67;55.19;100798.06;4798771;29;122821;-86
2022/04/23 20:55:54;;;;;;;9.55;6.13;;;;;;;13.72;55.13;100805.69;4794100;29;122493;-86
2022/04/23 20:58:21;;;;;;;10.00;6.68;;;;;;;13.67;55.26;100806.34;4809174;29;119843;-86
2022/04/23 21:00:49;;;;;;;9.88;6.32;;;;;;;13.65;55.43;100803.28;4794530;29;120741;-86
2022/04/23 21:03:15;;;;;;;7.78;5.97;;;;;;;13.63;55.41;100808.50;4794473;29;122061;-86
2022/04/23 21:05:41;;;;;;;8.90;5.90;;;;;;;13.60;55.55;100814.97;4792563;29;120414;-89
2022/04/23 21:08:10;;;;;;;8.27;5.68;;;;;;;13.47;55.40;100799.38;4780627;29;120160;-89
2022/04/23 21:10:36;;;;;;;9.90;6.10;;;;;;;13.44;55.61;100796.81;4796310;29;121760;-89
2022/04/23 21:13:03;;;;;;;8.57;5.70;;;;;;;13.43;55.61;100801.56;4809717;29;122897;-89
2022/04/23 21:15:29;;;;;;;7.65;5.75;;;;;;;13.51;55.16;100813.03;4800196;29;119986;-89
2022/04/23 21:17:55;;;;;;;10.38;6.53;;;;;;;13.42;55.39;100808.31;4794372;29;124154;-89
2022/04/23 21:20:21;;;;;;;9.20;6.40;;;;;;;13.46;55.47;100814.41;4809698;29;120177;-88
2022/04/23 21:22:47;;;;;;;8.25;5.82;;;;;;;13.37;55.45;100808.19;4795766;29;120672;-87
2022/04/23 21:25:13;;;;;;;10.07;6.13;;;;;;;13.29;55.20;100805.00;4811830;29;120185;-88
2022/04/23 21:27:39;;;;;;;8.55;6.22;;;;;;;13.31;55.04;100810.06;4806935;29;120170;-88
2022/04/23 21:30:06;;;;;;;10.50;6.53;;;;;;;13.33;55.56;100827.63;4795186;29;122248;-84
2022/04/23 21:32:38;;;;;;;9.10;6.30;;;;;;;13.30;55.71;100819.53;4794354;29;122562;-87
2022/04/23 21:35:05;;;;;;;7.97;6.47;;;;;;;13.26;55.35;100818.97;4813445;29;119589;-86
2022/04/23 21:37:31;;;;;;;11.23;6.35;;;;;;;13.29;55.46;100823.53;4809317;29;119972;-87
2022/04/23 21:39:57;;;;;;;13.00;6.78;;;;;;;13.32;55.89;100823.38;4805021;29;119538;-86
2022/04/23 21:45:08;;;;;;;9.98;6.97;;;;;;;13.30;55.54;100814.81;4793608;29;122943;-88
2022/04/23 21:47:42;;;;;;;8.88;6.78;;;;;;;13.17;55.64;100806.72;4791448;29;120624;-87
2022/04/23 21:50:12;;;;;;;10.68;7.22;;;;;;;13.17;55.52;100805.94;4824828;28;120295;-87
2022/04/23 21:52:38;;;;;;;10.07;7.50;;;;;;;13.20;55.82;100818.81;4794237;29;123622;-87
2022/04/23 21:55:05;;;;;;;11.45;7.38;;;;;;;13.16;56.30;100807.16;4793003;29;119993;-87
2022/04/23 21:57:31;;;;;;;12.75;7.20;;;;;;;12.84;56.00;100761.84;4811834;29;119947;-87
2022/04/23 21:59:56;;;;;;;10.43;7.55;;;;;;;13.07;55.99;100796.97;4809828;29;119991;-87
2022/04/23 22:02:22;;;;;;;10.13;7.28;;;;;;;13.04;56.47;100792.38;4808416;29;119979;-86
2022/04/23 22:04:48;;;;;;;11.30;7.85;;;;;;;13.13;56.49;100805.34;4809834;29;120510;-86
2022/04/23 22:07:18;;;;;;;11.82;8.00;;;;;;;13.17;56.47;100811.44;4795038;29;120630;-88
2022/04/23 22:09:51;;;;;;;8.93;7.72;;;;;;;13.10;56.69;100806.28;4810478;29;122878;-87
2022/04/23 22:12:17;;;;;;;10.50;8.45;;;;;;;13.02;56.53;100788.56;4809683;29;120334;-87
2022/04/23 22:14:43;;;;;;;12.07;7.97;;;;;;;13.02;57.08;100783.06;4795008;29;120497;-86
2022/04/23 22:17:09;;;;;;;13.07;8.43;;;;;;;13.15;56.80;100805.63;4811051;29;120118;-84
2022/04/23 22:19:37;;;;;;;12.48;8.25;;;;;;;13.12;56.87;100809.31;4798319;29;124097;-84
2022/04/23 22:22:03;;;;;;;15.13;8.80;;;;;;;13.14;56.69;100820.63;4809666;29;121237;-87
2022/04/23 22:24:28;;;;;;;12.75;8.40;;;;;;;13.04;57.08;100805.38;4807828;29;119940;-86
2022/04/23 22:26:54;;;;;;;12.38;8.65;;;;;;;13.10;57.28;100817.28;4793841;29;119956;-86
2022/04/23 22:29:20;;;;;;;12.75;9.18;;;;;;;12.99;57.41;100797.72;4778883;29;123387;-86
2022/04/23 22:31:47;;;;;;;14.65;8.80;;;;;;;13.05;57.62;100813.19;4792815;29;123026;-86
2022/04/23 22:34:13;;;;;;;13.80;9.98;;;;;;;12.96;57.41;100802.19;4794493;29;119576;-87
2022/04/23 22:36:39;;;;;;;12.50;9.10;;;;;;;13.01;57.39;100815.34;4793680;29;119635;-86
2022/04/23 22:39:05;;;;;;;11.48;9.38;;;;;;;12.98;57.92;100809.97;4793373;29;123504;-85
2022/04/23 22:41:32;;;;;;;12.88;9.30;;;;;;;12.96;57.71;100813.19;4813945;29;119995;-86
2022/04/23 22:43:58;;;;;;;12.82;9.60;;;;;;;12.96;57.84;100815.19;4780055;29;124440;-85
2022/04/23 22:46:23;;;;;;;13.80;9.60;;;;;;;12.83;57.88;100798.88;4776119;29;119783;-85
2022/04/23 22:48:49;;;;;;;15.13;10.02;;;;;;;12.88;57.74;100812.75;4778846;29;121680;-84
2022/04/23 22:51:15;;;;;;;14.07;9.20;;;;;;;12.81;58.37;100795.81;4793950;29;123388;-86
2022/04/23 22:53:40;;;;;;;11.45;9.27;;;;;;;12.80;58.52;100805.28;4790389;29;120525;-86
2022/04/23 22:56:09;;;;;;;15.60;9.77;;;;;;;12.75;58.55;100795.66;4788422;29;122380;-87
2022/04/23 22:58:34;;;;;;;12.35;9.38;;;;;;;12.79;58.71;100810.03;4806339;29;120722;-86
2022/04/23 23:01:00;;;;;;;12.32;9.48;;;;;;;12.72;58.71;100799.34;4792639;29;119903;-87
2022/04/23 23:03:26;;;;;;;13.73;9.38;;;;;;;12.69;58.80;100797.50;4784032;29;122045;-88
2022/04/23 23:05:52;;;;;;;12.32;9.55;;;;;;;12.71;59.00;100811.56;4774132;29;119970;-86
2022/04/23 23:08:18;;;;;;;13.82;9.60;;;;;;;12.69;58.90;100810.50;4777896;29;122575;-86
2022/04/23 23:10:44;;;;;;;10.70;8.77;;;;;;;12.56;59.31;100791.44;4808617;29;121320;-85
2022/04/23 23:13:11;;;;;;;13.35;9.57;;;;;;;12.63;59.33;100813.13;4809397;29;119756;-85
2022/04/23 23:15:36;;;;;;;14.50;9.65;;;;;;;12.55;59.50;100793.41;4805833;29;120479;-86
2022/04/23 23:18:02;;;;;;;12.77;8.75;;;;;;;12.60;59.38;100800.28;4801450;29;123263;-86
2022/04/23 23:20:28;;;;;;;11.45;8.80;;;;;;;12.55;59.74;100798.91;4804402;29;119839;-87
2022/04/23 23:22:53;;;;;;;13.20;9.32;;;;;;;12.57;59.79;100809.47;4811853;29;119964;-85